Time;durP1;ratioP1;P1;durP2;ratioP2;P2;SDS_P1;SDS_P2;PMS_P1;PMS_P2;Temp;Humidity;BMP_temperature;BMP_pressure;BME280_temperature;BME280_humidity;BME280_pressure;Samples;Min_cycle;Max_cycle;Signal;HPM_P1;HPM_P2
2022/12/11 00:01:54;;;;;;;;;;;;;;;4.10;100.00;98699.88;5033295;28;19913;-84
2022/12/11 00:04:20;;;;;;;;;;;;;;;3.93;100.00;98695.63;5032963;28;19956;-80
2022/12/11 00:06:49;;;;;;;;;;;;;;;4.03;100.00;98699.72;5015194;28;19944;-83
2022/12/11 00:09:14;;;;;;;;;;;;;;;4.13;100.00;98707.41;5015090;28;19936;-84
2022/12/11 00:11:41;;;;;;;;;;;;;;;4.12;100.00;98705.75;5032887;28;19967;-83
2022/12/11 00:14:06;;;;;;;;;;;;;;;3.82;100.00;98709.88;5032826;28;19921;-84
2022/12/11 00:16:31;;;;;;;;;;;;;;;3.77;100.00;98712.16;5033198;28;20328;-86
2022/12/11 00:18:57;;;;;;;;;;;;;;;3.74;100.00;98706.44;5032579;28;20025;-85
2022/12/11 00:21:22;;;;;;;;;;;;;;;3.77;100.00;98700.88;5032598;28;19971;-78
2022/12/11 00:23:48;;;;;;;;;;;;;;;3.63;100.00;98695.28;5032988;28;19959;-85
2022/12/11 00:26:14;;;;;;;;;;;;;;;3.77;100.00;98687.75;5032674;28;19928;-85
2022/12/11 00:28:40;;;;;;;;;;;;;;;3.77;100.00;98690.38;5032692;28;19921;-82
2022/12/11 00:31:06;;;;;;;;;;;;;;;3.65;100.00;98690.69;5034337;28;19921;-84
2022/12/11 00:33:32;;;;;;;;;;;;;;;3.66;100.00;98688.91;5034068;28;19928;-82
2022/12/11 00:35:58;;;;;;;;;;;;;;;3.54;100.00;98680.56;5034899;28;19921;-83
2022/12/11 00:38:23;;;;;;;;;;;;;;;3.42;100.00;98681.84;5036066;28;19928;-83
2022/12/11 00:40:49;;;;;;;;;;;;;;;3.13;100.00;98682.28;5036089;28;19933;-83
2022/12/11 00:43:15;;;;;;;;;;;;;;;3.17;100.00;98689.81;5036415;28;20292;-86
2022/12/11 00:45:41;;;;;;;;;;;;;;;3.29;100.00;98678.88;5018220;28;20015;-84
2022/12/11 00:48:08;;;;;;;;;;;;;;;3.26;100.00;98686.22;5035965;28;19913;-84
2022/12/11 00:50:33;;;;;;;;;;;;;;;3.41;100.00;98688.06;5036096;28;19917;-83
2022/12/11 00:52:59;;;;;;;;;;;;;;;3.46;100.00;98690.19;5018146;28;20441;-80
2022/12/11 00:55:26;;;;;;;;;;;;;;;3.37;100.00;98685.94;5035756;28;19921;-85
2022/12/11 00:57:52;;;;;;;;;;;;;;;3.51;100.00;98691.34;5018314;28;20031;-84
2022/12/11 01:00:17;;;;;;;;;;;;;;;3.63;100.00;98687.44;5035826;28;19932;-82
2022/12/11 01:02:43;;;;;;;;;;;;;;;3.69;100.00;98687.75;5035575;28;20007;-85
2022/12/11 01:05:08;;;;;;;;;;;;;;;3.32;100.00;98685.56;5035911;28;20134;-81
2022/12/11 01:07:34;;;;;;;;;;;;;;;3.37;100.00;98699.03;5035624;28;20374;-84
2022/12/11 01:12:46;;;;;;;;;;;;;;;3.40;100.00;98706.56;5035624;28;19921;-79
2022/12/11 01:15:12;;;;;;;;;;;;;;;3.61;100.00;98712.94;5035443;28;19921;-81
2022/12/11 01:17:37;;;;;;;;;;;;;;;3.51;100.00;98708.88;5035319;28;19964;-83
2022/12/11 01:20:03;;;;;;;;;;;;;;;3.29;100.00;98699.81;5035195;28;19921;-81
2022/12/11 01:22:29;;;;;;;;;;;;;;;3.40;100.00;98702.13;5017437;28;19925;-84
2022/12/11 01:24:55;;;;;;;;;;;;;;;3.77;100.00;98701.69;5035318;28;19920;-81
2022/12/11 01:27:20;;;;;;;;;;;;;;;3.81;100.00;98691.69;5035189;28;19921;-80
2022/12/11 01:29:45;;;;;;;;;;;;;;;3.69;100.00;98698.22;5035026;28;19971;-84
2022/12/11 01:32:11;;;;;;;;;;;;;;;3.84;100.00;98697.44;5035319;28;20317;-82
2022/12/11 01:34:36;;;;;;;;;;;;;;;3.85;100.00;98713.94;5035784;28;19971;-82
2022/12/11 01:37:02;;;;;;;;;;;;;;;3.58;100.00;98713.28;5034907;28;19921;-80
2022/12/11 01:39:27;;;;;;;;;;;;;;;3.67;100.00;98713.31;5035171;28;19932;-85
2022/12/11 01:41:56;;;;;;;;;;;;;;;3.25;100.00;98727.28;5034866;28;19935;-82
2022/12/11 01:44:21;;;;;;;;;;;;;;;3.38;100.00;98732.09;5017072;28;20293;-84
2022/12/11 01:46:47;;;;;;;;;;;;;;;3.23;100.00;98725.81;5034785;28;20019;-85
2022/12/11 01:49:14;;;;;;;;;;;;;;;3.40;100.00;98730.13;5034723;28;19928;-80
2022/12/11 01:51:42;;;;;;;;;;;;;;;3.48;100.00;98720.47;5035202;28;20274;-79
2022/12/11 01:54:10;;;;;;;;;;;;;;;3.22;100.00;98719.75;5035260;28;20394;-80
2022/12/11 01:56:36;;;;;;;;;;;;;;;3.27;100.00;98724.53;5035527;28;20394;-83
2022/12/11 01:59:06;;;;;;;;;;;;;;;3.55;100.00;98718.84;5037227;28;19921;-84
2022/12/11 02:01:38;;;;;;;;;;;;;;;3.14;100.00;98717.13;5036292;28;19997;-83
2022/12/11 02:04:05;;;;;;;;;;;;;;;2.97;100.00;98721.50;5018693;28;19922;-83
2022/12/11 02:06:30;;;;;;;;;;;;;;;2.83;100.00;98716.84;5035763;28;19921;-82
2022/12/11 02:08:56;;;;;;;;;;;;;;;2.73;100.00;98725.78;5034982;28;19952;-81
2022/12/11 02:11:22;;;;;;;;;;;;;;;2.57;100.00;98729.97;5035172;28;20304;-80
2022/12/11 02:13:56;;;;;;;;;;;;;;;2.73;100.00;98731.00;5035165;28;20016;-79
2022/12/11 02:16:27;;;;;;;;;;;;;;;2.66;100.00;98728.19;5035645;28;20400;-82
2022/12/11 02:18:53;;;;;;;;;;;;;;;2.82;100.00;98725.66;5035609;28;19921;-82
2022/12/11 02:21:22;;;;;;;;;;;;;;;2.81;100.00;98724.03;5035819;28;19964;-83
2022/12/11 02:23:56;;;;;;;;;;;;;;;2.79;100.00;98730.38;5018204;28;19921;-83
2022/12/11 02:26:40;;;;;;;;;;;;;;;2.89;100.00;98726.69;5035661;28;19921;-84
2022/12/11 02:29:12;;;;;;;;;;;;;;;2.81;100.00;98726.66;5035107;28;19921;-82
2022/12/11 02:31:38;;;;;;;;;;;;;;;2.75;100.00;98727.25;5035264;28;19921;-84
2022/12/11 02:34:22;;;;;;;;;;;;;;;2.45;100.00;98722.56;5034919;28;19928;-83
2022/12/11 02:36:50;;;;;;;;;;;;;;;2.51;100.00;98729.78;5016749;28;20289;-81
2022/12/11 02:39:16;;;;;;;;;;;;;;;2.54;100.00;98730.28;5034981;28;19925;-85
2022/12/11 02:41:45;;;;;;;;;;;;;;;2.82;100.00;98736.13;5035050;28;19922;-83
2022/12/11 02:44:13;;;;;;;;;;;;;;;2.79;100.00;98730.38;5034837;28;19947;-84
2022/12/11 02:46:39;;;;;;;;;;;;;;;2.56;100.00;98736.16;5034405;28;19929;-81
2022/12/11 02:49:05;;;;;;;;;;;;;;;2.46;100.00;98740.69;5034727;28;20401;-80
2022/12/11 02:51:33;;;;;;;;;;;;;;;2.57;100.00;98737.81;5034443;28;19917;-81
2022/12/11 02:53:58;;;;;;;;;;;;;;;2.70;100.00;98744.41;5034139;28;19921;-82
2022/12/11 02:56:37;;;;;;;;;;;;;;;2.48;100.00;98738.75;5034053;28;19967;-81
2022/12/11 02:59:09;;;;;;;;;;;;;;;2.54;100.00;98738.13;5033533;28;19968;-83
2022/12/11 03:01:34;;;;;;;;;;;;;;;2.84;100.00;98738.59;5019869;28;19929;-80
2022/12/11 03:03:59;;;;;;;;;;;;;;;2.84;100.00;98746.44;5044999;28;19921;-80
2022/12/11 03:06:31;;;;;;;;;;;;;;;3.05;100.00;98752.06;5039659;28;19928;-80
2022/12/11 03:08:57;;;;;;;;;;;;;;;3.04;100.00;98753.06;5033788;28;19964;-83
2022/12/11 03:11:22;;;;;;;;;;;;;;;2.98;100.00;98761.56;5033685;28;19956;-80
2022/12/11 03:13:47;;;;;;;;;;;;;;;3.01;100.00;98761.25;5033714;28;19987;-81
2022/12/11 03:16:15;;;;;;;;;;;;;;;2.85;100.00;98776.88;5034398;28;19928;-82
2022/12/11 03:18:44;;;;;;;;;;;;;;;2.88;100.00;98776.56;5033951;28;19921;-81
2022/12/11 03:21:10;;;;;;;;;;;;;;;2.79;100.00;98773.06;5016808;28;19921;-84
2022/12/11 03:23:43;;;;;;;;;;;;;;;2.63;100.00;98772.97;5035004;28;20288;-78
2022/12/11 03:26:10;;;;;;;;;;;;;;;2.42;100.00;98759.47;5034443;28;20266;-82
2022/12/11 03:28:47;;;;;;;;;;;;;;;2.47;100.00;98762.41;5034312;28;19916;-82
2022/12/11 03:31:35;;;;;;;;;;;;;;;2.71;100.00;98766.97;5034806;28;19921;-84
2022/12/11 03:34:04;;;;;;;;;;;;;;;2.81;100.00;98765.06;5035756;28;19921;-81
2022/12/11 03:36:32;;;;;;;;;;;;;;;2.36;100.00;98763.50;5036130;28;19936;-80
2022/12/11 03:39:17;;;;;;;;;;;;;;;2.44;100.00;98774.00;5038013;28;20059;-82
2022/12/11 03:41:45;;;;;;;;;;;;;;;2.50;100.00;98772.56;5035760;28;19917;-80
2022/12/11 03:44:11;;;;;;;;;;;;;;;2.66;100.00;98777.06;5038536;28;19921;-80
2022/12/11 03:46:37;;;;;;;;;;;;;;;2.51;100.00;98769.00;5038084;28;19917;-81
2022/12/11 03:49:17;;;;;;;;;;;;;;;2.69;100.00;98780.19;5036567;28;19921;-83
2022/12/11 03:51:45;;;;;;;;;;;;;;;2.70;100.00;98783.63;5037032;28;20464;-82
2022/12/11 03:54:11;;;;;;;;;;;;;;;2.92;100.00;98793.56;5036767;28;20331;-81
2022/12/11 03:56:37;;;;;;;;;;;;;;;3.13;100.00;98788.75;5034540;28;19927;-83
2022/12/11 03:59:02;;;;;;;;;;;;;;;2.95;100.00;98777.56;5034646;28;19925;-80
2022/12/11 04:01:28;;;;;;;;;;;;;;;2.74;100.00;98779.75;5034531;28;19944;-82
2022/12/11 04:03:53;;;;;;;;;;;;;;;2.70;100.00;98778.41;5034424;28;19921;-79
2022/12/11 04:06:19;;;;;;;;;;;;;;;2.58;100.00;98776.06;5034103;28;19921;-80
2022/12/11 04:08:44;;;;;;;;;;;;;;;2.77;100.00;98784.66;5016935;28;19921;-87
2022/12/11 04:16:38;;;;;;;;;;;;;;;2.62;100.00;98799.28;5038219;28;19975;-83
2022/12/11 04:24:31;;;;;;;;;;;;;;;2.69;100.00;98797.69;5037940;28;19921;-82
2022/12/11 04:26:56;;;;;;;;;;;;;;;2.65;100.00;98801.59;5020830;28;19940;-82
2022/12/11 04:29:22;;;;;;;;;;;;;;;2.60;100.00;98802.88;5038090;28;19923;-83
2022/12/11 04:31:49;;;;;;;;;;;;;;;2.69;100.00;98802.91;5037816;28;19928;-82
2022/12/11 04:34:14;;;;;;;;;;;;;;;2.67;100.00;98808.31;5037486;28;19917;-79
2022/12/11 04:36:40;;;;;;;;;;;;;;;2.74;100.00;98811.13;5037920;28;19925;-78
2022/12/11 04:39:05;;;;;;;;;;;;;;;2.56;100.00;98814.59;5037576;28;20009;-82
2022/12/11 04:41:31;;;;;;;;;;;;;;;2.39;100.00;98810.22;5038134;28;19925;-83
2022/12/11 04:43:56;;;;;;;;;;;;;;;2.28;100.00;98805.25;5037505;28;19921;-83
2022/12/11 04:46:22;;;;;;;;;;;;;;;2.26;100.00;98796.75;5037724;28;19928;-84
2022/12/11 04:48:48;;;;;;;;;;;;;;;2.33;100.00;98807.41;5037882;28;19925;-84
2022/12/11 04:51:14;;;;;;;;;;;;;;;2.29;100.00;98806.88;5037387;28;19917;-82
2022/12/11 04:53:39;;;;;;;;;;;;;;;2.28;100.00;98804.44;5038044;28;19921;-83
2022/12/11 04:56:06;;;;;;;;;;;;;;;2.22;100.00;98805.84;5019629;28;19921;-81
2022/12/11 04:58:31;;;;;;;;;;;;;;;2.48;100.00;98814.56;5037476;28;19974;-84
2022/12/11 05:00:56;;;;;;;;;;;;;;;2.18;100.00;98808.94;5004465;28;20393;-80
2022/12/11 05:03:22;;;;;;;;;;;;;;;2.10;100.00;98801.84;5018896;28;19997;-83
2022/12/11 05:05:49;;;;;;;;;;;;;;;2.20;100.00;98802.56;5018226;28;19922;-81
2022/12/11 05:08:15;;;;;;;;;;;;;;;2.30;100.00;98792.03;5017377;28;20242;-81
2022/12/11 05:10:40;;;;;;;;;;;;;;;2.24;100.00;98787.41;5017686;28;19925;-81
2022/12/11 05:13:06;;;;;;;;;;;;;;;2.02;100.00;98791.34;5017505;28;19928;-79
2022/12/11 05:15:31;;;;;;;;;;;;;;;1.95;100.00;98792.91;5017493;28;19965;-80
2022/12/11 05:17:56;;;;;;;;;;;;;;;1.75;100.00;98788.78;5017774;28;20285;-84
2022/12/11 05:20:22;;;;;;;;;;;;;;;1.65;100.00;98795.88;5016393;28;19922;-80
2022/12/11 05:22:47;;;;;;;;;;;;;;;1.64;100.00;98794.22;5016867;28;19918;-80
2022/12/11 05:25:13;;;;;;;;;;;;;;;1.87;100.00;98795.44;5016782;28;20402;-82
2022/12/11 05:27:39;;;;;;;;;;;;;;;1.82;100.00;98788.06;5017063;28;19929;-82
2022/12/11 05:30:04;;;;;;;;;;;;;;;1.70;100.00;98791.00;5016621;28;19925;-82
2022/12/11 05:32:30;;;;;;;;;;;;;;;1.62;100.00;98796.16;5016825;28;19952;-85
2022/12/11 05:34:55;;;;;;;;;;;;;;;1.74;100.00;98797.59;5016952;28;19976;-80
2022/12/11 05:37:20;;;;;;;;;;;;;;;1.77;100.00;98799.91;5016512;28;20283;-83
2022/12/11 05:39:46;;;;;;;;;;;;;;;1.84;100.00;98790.50;5016662;28;19956;-79
2022/12/11 05:42:11;;;;;;;;;;;;;;;1.91;100.00;98788.94;5016256;28;19961;-82
2022/12/11 05:44:36;;;;;;;;;;;;;;;2.27;100.00;98795.78;5016993;28;19921;-82
2022/12/11 05:47:02;;;;;;;;;;;;;;;2.15;100.00;98804.00;5016711;28;20020;-80
2022/12/11 05:49:27;;;;;;;;;;;;;;;2.43;100.00;98801.13;4999241;28;19966;-81
2022/12/11 05:51:53;;;;;;;;;;;;;;;2.30;100.00;98798.09;5016960;28;19921;-82
2022/12/11 05:54:18;;;;;;;;;;;;;;;2.30;100.00;98798.09;5016546;28;20112;-78
2022/12/11 05:56:44;;;;;;;;;;;;;;;2.28;100.00;98802.66;5016480;28;19921;-83
2022/12/11 05:59:09;;;;;;;;;;;;;;;2.20;100.00;98810.41;5016433;28;19922;-82
2022/12/11 06:01:40;;;;;;;;;;;;;;;2.20;100.00;98810.41;5015939;28;19944;-80
2022/12/11 06:04:06;;;;;;;;;;;;;;;2.26;100.00;98816.81;5015991;28;20013;-81
2022/12/11 06:06:32;;;;;;;;;;;;;;;2.46;100.00;98824.34;4998635;28;19936;-85
2022/12/11 06:08:57;;;;;;;;;;;;;;;2.25;100.00;98831.72;5016145;28;19925;-82
2022/12/11 06:11:24;;;;;;;;;;;;;;;2.27;100.00;98832.38;5015743;28;19928;-83
2022/12/11 06:13:49;;;;;;;;;;;;;;;2.47;100.00;98839.06;5015725;28;19928;-80
2022/12/11 06:16:15;;;;;;;;;;;;;;;2.43;100.00;98832.50;5015404;28;20012;-81
2022/12/11 06:18:41;;;;;;;;;;;;;;;2.27;100.00;98832.38;5015674;28;20302;-83
2022/12/11 06:21:14;;;;;;;;;;;;;;;2.38;100.00;98826.91;5015755;28;19922;-80
2022/12/11 06:23:40;;;;;;;;;;;;;;;2.59;100.00;98830.00;5015645;28;20327;-82
2022/12/11 06:26:06;;;;;;;;;;;;;;;2.52;100.00;98834.19;5016001;28;19914;-82
2022/12/11 06:28:31;;;;;;;;;;;;;;;2.87;100.00;98835.91;5015691;28;20294;-83
2022/12/11 06:31:00;;;;;;;;;;;;;;;3.04;100.00;98842.06;5015641;28;19928;-81
2022/12/11 06:33:25;;;;;;;;;;;;;;;3.04;100.00;98845.50;5015210;28;19922;-83
2022/12/11 06:35:51;;;;;;;;;;;;;;;3.04;100.00;98855.13;4997431;28;20366;-84
2022/12/11 06:38:16;;;;;;;;;;;;;;;2.91;100.00;98846.88;5015369;28;19922;-83
2022/12/11 06:40:42;;;;;;;;;;;;;;;3.13;100.00;98859.44;5015568;28;20289;-84
2022/12/11 06:43:07;;;;;;;;;;;;;;;3.25;100.00;98870.47;5015691;28;19913;-84
2022/12/11 06:45:33;;;;;;;;;;;;;;;2.92;100.00;98858.97;5015378;28;19925;-82
2022/12/11 06:47:58;;;;;;;;;;;;;;;2.88;100.00;98857.66;5015784;28;19924;-84
2022/12/11 06:50:23;;;;;;;;;;;;;;;2.75;100.00;98865.88;4997255;28;19921;-82
2022/12/11 06:52:49;;;;;;;;;;;;;;;2.77;100.00;98863.13;4997526;28;19935;-79
2022/12/11 06:55:14;;;;;;;;;;;;;;;2.84;100.00;98858.94;5015293;28;19917;-83
2022/12/11 06:57:39;;;;;;;;;;;;;;;2.73;100.00;98867.84;5015530;28;20024;-86
2022/12/11 07:00:05;;;;;;;;;;;;;;;2.66;100.00;98871.22;5015142;28;19963;-85
2022/12/11 07:02:31;;;;;;;;;;;;;;;2.71;100.00;98855.91;5015553;28;20044;-84
2022/12/11 07:04:56;;;;;;;;;;;;;;;2.59;100.00;98860.53;5015011;28;19922;-83
2022/12/11 07:07:21;;;;;;;;;;;;;;;2.50;100.00;98861.47;5015466;28;20230;-84
2022/12/11 07:09:47;;;;;;;;;;;;;;;2.27;100.00;98853.28;5015040;28;19932;-81
2022/12/11 07:12:12;;;;;;;;;;;;;;;2.23;100.00;98862.38;4997220;28;19922;-85
2022/12/11 07:14:38;;;;;;;;;;;;;;;2.15;100.00;98877.19;5015554;28;19997;-84
2022/12/11 07:17:03;;;;;;;;;;;;;;;2.26;100.00;98880.38;5014718;28;19921;-84
2022/12/11 07:19:29;;;;;;;;;;;;;;;2.17;100.00;98885.69;5014289;28;19972;-83
2022/12/11 07:21:54;;;;;;;;;;;;;;;2.12;100.00;98886.16;5014031;28;19925;-82
2022/12/11 07:24:20;;;;;;;;;;;;;;;2.13;100.00;98890.38;5014197;28;20029;-81
2022/12/11 07:26:45;;;;;;;;;;;;;;;2.30;100.00;98892.19;5014788;28;20371;-83
2022/12/11 07:29:10;;;;;;;;;;;;;;;2.30;100.00;98893.97;5015231;28;19917;-82
2022/12/11 07:31:36;;;;;;;;;;;;;;;2.30;100.00;98902.63;5034576;28;19927;-82
2022/12/11 07:34:04;;;;;;;;;;;;;;;2.29;100.00;98900.97;5033876;28;20403;-78
2022/12/11 07:36:29;;;;;;;;;;;;;;;2.53;100.00;98901.22;5034712;28;19951;-79
2022/12/11 07:38:55;;;;;;;;;;;;;;;2.60;100.00;98906.66;5034674;28;20335;-79
2022/12/11 07:41:22;;;;;;;;;;;;;;;2.64;100.00;98904.56;5034727;28;20404;-85
2022/12/11 07:43:52;;;;;;;;;;;;;;;2.70;100.00;98909.19;5018417;28;19921;-86
2022/12/11 07:46:19;;;;;;;;;;;;;;;2.85;100.00;98912.91;5021168;28;20404;-80
2022/12/11 07:48:45;;;;;;;;;;;;;;;2.92;100.00;98919.16;5017855;28;19928;-82
2022/12/11 07:51:13;;;;;;;;;;;;;;;2.93;100.00;98924.25;5026989;28;20359;-83
2022/12/11 07:53:39;;;;;;;;;;;;;;;2.90;100.00;98927.16;5014500;28;19925;-83
2022/12/11 07:56:05;;;;;;;;;;;;;;;2.84;100.00;98932.19;5013554;28;19917;-82
2022/12/11 07:58:30;;;;;;;;;;;;;;;2.82;100.00;98945.41;5013511;28;19975;-85
2022/12/11 08:00:56;;;;;;;;;;;;;;;2.84;100.00;98945.28;5013358;28;20527;-84
2022/12/11 08:03:22;;;;;;;;;;;;;;;2.86;100.00;98956.38;5017629;28;19913;-83
2022/12/11 08:05:51;;;;;;;;;;;;;;;2.86;100.00;98966.84;5036424;28;19936;-84
2022/12/11 08:08:16;;;;;;;;;;;;;;;2.91;100.00;98967.25;5033675;28;19956;-84
2022/12/11 08:10:42;;;;;;;;;;;;;;;2.90;100.00;98974.25;5015280;28;19987;-86
2022/12/11 08:13:08;;;;;;;;;;;;;;;2.99;100.00;98972.53;5032923;28;20386;-87
2022/12/11 08:15:34;;;;;;;;;;;;;;;2.90;100.00;98978.66;5032595;28;19928;-83
2022/12/11 08:17:59;;;;;;;;;;;;;;;2.94;100.00;98983.47;5033558;28;19948;-85
2022/12/11 08:20:25;;;;;;;;;;;;;;;2.95;100.00;98987.69;5032740;28;19925;-83
2022/12/11 08:22:50;;;;;;;;;;;;;;;3.09;100.00;99002.03;5016697;28;19928;-81
2022/12/11 08:25:15;;;;;;;;;;;;;;;3.13;100.00;98996.34;5016725;28;20374;-83
2022/12/11 08:27:41;;;;;;;;;;;;;;;3.11;100.00;98998.31;5029017;28;19964;-82
2022/12/11 08:30:06;;;;;;;;;;;;;;;3.07;100.00;99001.38;5035514;28;19998;-81
2022/12/11 08:32:33;;;;;;;;;;;;;;;3.03;100.00;99000.84;5036549;28;19921;-83
2022/12/11 08:34:58;;;;;;;;;;;;;;;3.06;100.00;98999.72;5037658;28;19963;-81
2022/12/11 08:37:24;;;;;;;;;;;;;;;3.06;100.00;99011.03;5043975;28;19983;-82
2022/12/11 08:39:50;;;;;;;;;;;;;;;3.16;100.00;99004.88;5021020;28;20432;-84
2022/12/11 08:42:15;;;;;;;;;;;;;;;3.08;100.00;99008.28;5038477;28;19921;-80
2022/12/11 08:44:40;;;;;;;;;;;;;;;3.09;100.00;99015.94;5042178;28;19948;-80
2022/12/11 08:47:08;;;;;;;;;;;;;;;2.97;100.00;99016.34;5015125;28;19921;-80
2022/12/11 08:49:34;;;;;;;;;;;;;;;2.93;100.00;99020.22;5033133;28;19923;-87
2022/12/11 08:51:59;;;;;;;;;;;;;;;2.98;100.00;99024.03;5014911;28;19921;-84
2022/12/11 08:54:25;;;;;;;;;;;;;;;3.04;100.00;99033.09;5033232;28;19967;-84
2022/12/11 08:56:50;;;;;;;;;;;;;;;2.98;100.00;99042.34;5026381;28;19943;-80
2022/12/11 08:59:16;;;;;;;;;;;;;;;2.98;100.00;99052.00;5023892;28;19925;-85
2022/12/11 09:01:41;;;;;;;;;;;;;;;3.07;100.00;99056.34;5036891;28;19972;-85
2022/12/11 09:04:06;;;;;;;;;;;;;;;3.17;100.00;99054.47;5031252;28;19921;-86
2022/12/11 09:06:32;;;;;;;;;;;;;;;3.09;100.00;99062.25;5027027;28;19921;-85
2022/12/11 09:08:58;;;;;;;;;;;;;;;3.01;100.00;99065.63;5016483;28;19932;-85
2022/12/11 09:11:25;;;;;;;;;;;;;;;2.96;100.00;99067.03;5030426;28;19922;-86
2022/12/11 09:13:51;;;;;;;;;;;;;;;2.94;100.00;99069.81;5018791;28;19943;-82
2022/12/11 09:16:18;;;;;;;;;;;;;;;2.98;100.00;99080.81;5028189;28;19996;-84
2022/12/11 09:18:45;;;;;;;;;;;;;;;2.96;100.00;99087.97;5022012;28;20015;-82
2022/12/11 09:21:14;;;;;;;;;;;;;;;3.00;100.00;99092.75;5018747;28;19991;-82
2022/12/11 09:23:40;;;;;;;;;;;;;;;3.07;100.00;99093.81;5009403;28;19917;-83
2022/12/11 09:26:07;;;;;;;;;;;;;;;3.03;100.00;99096.88;5027990;28;20012;-80
2022/12/11 09:28:33;;;;;;;;;;;;;;;3.04;100.00;99101.97;5032609;28;20553;-86
2022/12/11 09:30:58;;;;;;;;;;;;;;;3.16;100.00;99099.94;5031134;28;20064;-88
2022/12/11 09:33:24;;;;;;;;;;;;;;;3.19;100.00;99098.81;5019070;28;19979;-86
2022/12/11 09:35:59;;;;;;;;;;;;;;;3.15;100.00;99098.28;5023882;28;19921;-88
2022/12/11 09:38:25;;;;;;;;;;;;;;;3.17;100.00;99106.81;5030784;28;19968;-88
2022/12/11 09:40:50;;;;;;;;;;;;;;;3.11;100.00;99103.00;5029870;28;19968;-86
2022/12/11 09:43:35;;;;;;;;;;;;;;;3.04;100.00;99111.59;5027789;28;19921;-84
2022/12/11 09:46:02;;;;;;;;;;;;;;;3.03;100.00;99096.88;5026134;28;20389;-82
2022/12/11 09:48:27;;;;;;;;;;;;;;;3.05;100.00;99084.44;5028530;28;20008;-85
2022/12/11 09:50:53;;;;;;;;;;;;;;;3.11;100.00;99086.47;5033046;28;20028;-85
2022/12/11 09:53:23;;;;;;;;;;;;;;;3.25;100.00;99093.00;5019068;28;20020;-84
2022/12/11 09:55:49;;;;;;;;;;;;;;;3.26;100.00;99098.06;5029834;28;19980;-83
2022/12/11 09:58:29;;;;;;;;;;;;;;;3.35;100.00;99093.69;5021816;28;20386;-85
2022/12/11 10:01:13;;;;;;;;;;;;;;;3.40;100.00;99097.53;5020724;28;19929;-82
2022/12/11 10:03:44;;;;;;;;;;;;;;;3.39;100.00;99095.88;5020038;28;19929;-84
2022/12/11 10:06:21;;;;;;;;;;;;;;;3.44;100.00;99088.41;5027439;28;19925;-87
2022/12/11 10:08:55;;;;;;;;;;;;;;;3.75;100.00;99088.78;5020238;28;19956;-87
2022/12/11 10:11:20;;;;;;;;;;;;;;;3.77;100.00;99084.22;5027525;28;20023;-79
2022/12/11 10:13:53;;;;;;;;;;;;;;;3.81;100.00;99084.72;5035534;28;20011;-81
2022/12/11 10:16:31;;;;;;;;;;;;;;;3.80;100.00;99083.06;5026523;28;19929;-89
2022/12/11 10:18:58;;;;;;;;;;;;;;;3.92;100.00;99079.22;5020239;28;19965;-88
2022/12/11 10:21:24;;;;;;;;;;;;;;;4.02;100.00;99077.31;5020663;28;20497;-84
2022/12/11 10:23:53;;;;;;;;;;;;;;;4.00;100.00;99089.75;5020807;28;19925;-78
2022/12/11 10:26:20;;;;;;;;;;;;;;;4.23;100.00;99076.91;5037419;28;20341;-79
2022/12/11 10:28:45;;;;;;;;;;;;;;;4.30;100.00;99081.38;5024701;28;19929;-80
2022/12/11 10:31:18;;;;;;;;;;;;;;;4.40;100.00;99076.00;5031350;28;19921;-80
2022/12/11 10:33:43;;;;;;;;;;;;;;;4.31;100.00;99080.38;5017476;28;19921;-80
2022/12/11 10:36:12;;;;;;;;;;;;;;;4.31;100.00;99080.38;5000016;28;19922;-82
2022/12/11 10:38:39;;;;;;;;;;;;;;;4.48;100.00;99084.72;5033368;28;19927;-79
2022/12/11 10:41:11;;;;;;;;;;;;;;;4.61;100.00;99076.41;5014343;28;19929;-85
2022/12/11 10:43:38;;;;;;;;;;;;;;;4.79;100.00;99082.38;5017646;28;19924;-85
2022/12/11 10:46:05;;;;;;;;;;;;;;;4.84;100.00;99076.66;5006416;28;19928;-80
2022/12/11 10:48:30;;;;;;;;;;;;;;;4.63;100.00;99075.28;5035458;28;20286;-88
2022/12/11 10:50:58;;;;;;;;;;;;;;;4.61;100.00;99074.59;5032383;28;19928;-85
2022/12/11 10:53:24;;;;;;;;;;;;;;;4.54;100.00;99073.59;5026481;28;20024;-82
2022/12/11 10:55:53;;;;;;;;;;;;;;;4.55;100.00;99080.50;5019882;28;19948;-80
2022/12/11 10:58:32;;;;;;;;;;;;;;;4.58;100.00;99090.66;5037339;28;19921;-79
2022/12/11 11:01:06;;;;;;;;;;;;;;;4.54;100.00;99088.53;5019368;28;19965;-85
2022/12/11 11:03:33;;;;;;;;;;;;;;;4.58;100.00;99098.53;5033610;28;19929;-86
2022/12/11 11:06:13;;;;;;;;;;;;;;;4.46;100.00;99093.75;5029337;28;19948;-80
2022/12/11 11:08:43;;;;;;;;;;;;;;;4.38;100.00;99094.53;5014570;28;19921;-81
2022/12/11 11:11:20;;;;;;;;;;;;;;;4.44;100.00;99093.88;5024211;28;19926;-79
2022/12/11 11:13:45;;;;;;;;;;;;;;;4.36;100.00;99096.50;5016854;28;19921;-81
2022/12/11 11:16:11;;;;;;;;;;;;;;;4.31;100.00;99088.25;5020049;28;19921;-80
2022/12/11 11:18:38;;;;;;;;;;;;;;;4.39;100.00;99096.16;5015678;28;20393;-79
2022/12/11 11:21:04;;;;;;;;;;;;;;;4.57;100.00;99096.09;5030179;28;20290;-83
2022/12/11 11:23:30;;;;;;;;;;;;;;;4.57;100.00;99098.72;5015321;28;19922;-80
2022/12/11 11:25:55;;;;;;;;;;;;;;;4.59;100.00;99097.56;5027897;28;20405;-89
2022/12/11 11:28:24;;;;;;;;;;;;;;;4.56;100.00;99091.81;5032986;28;19921;-79
2022/12/11 11:30:55;;;;;;;;;;;;;;;4.61;100.00;99089.53;5029168;28;19936;-80
2022/12/11 11:33:21;;;;;;;;;;;;;;;4.65;100.00;99099.53;5017716;28;19921;-80
2022/12/11 11:35:52;;;;;;;;;;;;;;;4.71;100.00;99095.44;5023144;28;19928;-84
2022/12/11 11:38:19;;;;;;;;;;;;;;;4.80;100.00;99096.31;5020496;28;20012;-88
2022/12/11 11:40:54;;;;;;;;;;;;;;;4.81;100.00;99090.06;5028485;28;19917;-80
2022/12/11 11:43:27;;;;;;;;;;;;;;;4.97;100.00;99093.53;5011380;28;19956;-84
2022/12/11 11:46:02;;;;;;;;;;;;;;;4.99;100.00;99098.66;5003731;28;19918;-82
2022/12/11 11:48:46;;;;;;;;;;;;;;;4.86;100.00;99093.03;5034591;28;19921;-86
2022/12/11 11:51:14;;;;;;;;;;;;;;;4.83;100.00;99088.13;5019072;28;19968;-88
2022/12/11 11:53:40;;;;;;;;;;;;;;;4.81;100.00;99084.81;5019062;28;20369;-86
2022/12/11 11:56:16;;;;;;;;;;;;;;;4.97;100.00;99090.13;5036951;28;19917;-81
2022/12/11 11:58:49;;;;;;;;;;;;;;;5.07;100.00;99082.91;5024377;28;19921;-82
2022/12/11 12:01:16;;;;;;;;;;;;;;;5.25;100.00;99078.34;5015292;28;20014;-79
2022/12/11 12:03:44;;;;;;;;;;;;;;;5.03;100.00;99084.22;5021074;28;19983;-82
2022/12/11 12:06:19;;;;;;;;;;;;;;;5.13;100.00;99074.38;5032450;28;20311;-79
2022/12/11 12:08:54;;;;;;;;;;;;;;;5.17;100.00;99087.00;5006240;28;19968;-83
2022/12/11 12:11:30;;;;;;;;;;;;;;;5.22;100.00;99091.78;5039594;28;19929;-82
2022/12/11 12:14:02;;;;;;;;;;;;;;;5.26;100.00;99087.88;5010081;28;19921;-84
2022/12/11 12:16:45;;;;;;;;;;;;;;;5.30;100.00;99091.81;5015789;28;20338;-85
2022/12/11 12:19:28;;;;;;;;;;;;;;;4.90;100.00;99089.94;5028624;28;19921;-82
2022/12/11 12:22:06;;;;;;;;;;;;;;;5.07;100.00;99094.22;5028963;28;20017;-80
2022/12/11 12:24:31;;;;;;;;;;;;;;;5.06;100.00;99097.03;5036358;28;20012;-82
2022/12/11 12:27:03;;;;;;;;;;;;;;;5.32;100.00;99095.09;5023024;28;20343;-84
2022/12/11 12:29:41;;;;;;;;;;;;;;;5.14;100.00;99089.97;5016556;28;19979;-87
2022/12/11 12:32:06;;;;;;;;;;;;;;;4.96;100.00;99098.97;5045667;28;19921;-82
2022/12/11 12:34:37;;;;;;;;;;;;;;;4.93;100.00;99104.56;5041096;28;19975;-83
2022/12/11 12:37:22;;;;;;;;;;;;;;;4.73;100.00;99104.00;5027853;28;19952;-78
2022/12/11 12:39:50;;;;;;;;;;;;;;;5.00;100.00;99110.81;5032212;28;19925;-80
2022/12/11 12:42:34;;;;;;;;;;;;;;;5.13;100.00;99104.09;5021452;28;19921;-80
2022/12/11 12:45:03;;;;;;;;;;;;;;;5.29;100.00;99105.91;5041685;28;19925;-82
2022/12/11 12:47:32;;;;;;;;;;;;;;;5.22;100.00;99105.75;5034438;28;19925;-79
2022/12/11 12:49:58;;;;;;;;;;;;;;;5.23;100.00;99109.19;5022178;28;19953;-79
2022/12/11 12:52:23;;;;;;;;;;;;;;;5.22;100.00;99116.25;5041453;28;19925;-81
2022/12/11 12:57:35;;;;;;;;;;;;;;;5.21;100.00;99119.03;5034123;28;19921;-84
2022/12/11 13:00:02;;;;;;;;;;;;;;;5.33;100.00;99117.75;5041510;28;19921;-81
2022/12/11 13:02:30;;;;;;;;;;;;;;;5.41;100.00;99114.28;5027543;28;20326;-80
2022/12/11 13:04:57;;;;;;;;;;;;;;;5.30;100.00;99115.44;5021700;28;19943;-85
2022/12/11 13:07:28;;;;;;;;;;;;;;;5.48;100.00;99115.28;5038291;28;19960;-80